Time;durP1;ratioP1;P1;durP2;ratioP2;P2;SDS_P1;SDS_P2;PMS_P1;PMS_P2;Temp;Humidity;BMP_temperature;BMP_pressure;BME280_temperature;BME280_humidity;BME280_pressure;Samples;Min_cycle;Max_cycle;Signal;HPM_P1;HPM_P2
2021/06/15 00:01:54;;;;;;;0.00;0.00;;;24.30;59.30;;;;;;4226555;28;20058;-51
2021/06/15 00:04:16;;;;;;;0.00;0.00;;;24.30;59.40;;;;;;4226508;28;20106;-49
2021/06/15 00:06:40;;;;;;;0.00;0.00;;;24.30;59.30;;;;;;4225879;28;20048;-54
2021/06/15 00:09:02;;;;;;;0.00;0.00;;;24.30;59.30;;;;;;4226454;28;20455;-54
2021/06/15 00:11:24;;;;;;;0.15;0.15;;;24.20;59.30;;;;;;4225860;28;20055;-54
2021/06/15 00:13:47;;;;;;;0.00;0.00;;;24.30;59.40;;;;;;4226177;28;20046;-54
2021/06/15 00:16:09;;;;;;;0.00;0.00;;;24.20;59.30;;;;;;4225703;28;20050;-53
2021/06/15 00:18:33;;;;;;;0.00;0.00;;;24.20;59.30;;;;;;4225497;28;20105;-52
2021/06/15 00:20:55;;;;;;;0.00;0.00;;;24.20;59.30;;;;;;4225537;28;20048;-52
2021/06/15 00:23:19;;;;;;;0.00;0.00;;;24.20;59.30;;;;;;4224647;27;20047;-49
2021/06/15 00:25:42;;;;;;;0.00;0.00;;;24.10;59.30;;;;;;4226148;27;20520;-54
2021/06/15 00:28:05;;;;;;;0.00;0.00;;;24.20;59.30;;;;;;4210653;28;20036;-52
2021/06/15 00:30:27;;;;;;;0.00;0.00;;;24.10;59.40;;;;;;4226076;27;20055;-50
2021/06/15 00:32:51;;;;;;;0.00;0.00;;;24.10;60.10;;;;;;4226138;28;20175;-54
2021/06/15 00:35:13;;;;;;;0.00;0.00;;;24.10;59.40;;;;;;4226233;27;20056;-54
2021/06/15 00:37:35;;;;;;;0.50;0.20;;;24.10;59.40;;;;;;4225519;28;20107;-55
2021/06/15 00:39:59;;;;;;;0.30;0.30;;;24.10;59.40;;;;;;4226004;27;20051;-54
2021/06/15 00:42:22;;;;;;;1.10;0.60;;;24.10;59.40;;;;;;4226012;27;20043;-55
2021/06/15 00:44:44;;;;;;;0.03;0.03;;;24.10;59.40;;;;;;4225882;27;20074;-55
2021/06/15 00:47:07;;;;;;;0.20;0.20;;;24.10;59.40;;;;;;4225734;28;20464;-50
2021/06/15 00:49:34;;;;;;;0.00;0.00;;;24.10;59.40;;;;;;4225919;27;20126;-53
2021/06/15 00:51:57;;;;;;;0.00;0.00;;;24.10;59.40;;;;;;4224246;27;20075;-50
2021/06/15 00:54:19;;;;;;;0.28;0.28;;;24.10;59.40;;;;;;4225912;27;20138;-53
2021/06/15 00:56:43;;;;;;;0.00;0.00;;;24.00;59.30;;;;;;4209743;28;20051;-51
2021/06/15 00:59:06;;;;;;;0.00;0.00;;;24.00;59.40;;;;;;4209769;28;20517;-50
2021/06/15 01:01:28;;;;;;;0.00;0.00;;;24.00;59.30;;;;;;4190903;28;20466;-50
2021/06/15 01:03:50;;;;;;;0.80;0.80;;;24.00;59.30;;;;;;4192159;28;20777;-53
2021/06/15 01:06:17;;;;;;;0.00;0.00;;;24.00;59.30;;;;;;4211836;27;20047;-53
2021/06/15 01:08:45;;;;;;;0.00;0.00;;;24.00;60.10;;;;;;4225547;27;20055;-53
2021/06/15 01:11:21;;;;;;;0.00;0.00;;;24.00;59.30;;;;;;4223856;28;20810;-49
2021/06/15 01:13:55;;;;;;;0.00;0.00;;;24.00;59.40;;;;;;4223713;28;20101;-53
2021/06/15 01:16:25;;;;;;;0.00;0.00;;;24.00;59.30;;;;;;4223578;28;20048;-53
2021/06/15 01:18:52;;;;;;;0.00;0.00;;;24.00;59.40;;;;;;4225289;27;20384;-50
2021/06/15 01:21:14;;;;;;;0.00;0.00;;;23.90;59.40;;;;;;4225217;28;20061;-53
2021/06/15 01:23:59;;;;;;;0.00;0.00;;;23.90;59.40;;;;;;4224698;27;20048;-55
2021/06/15 01:27:04;;;;;;;0.00;0.00;;;23.90;59.30;;;;;;4225269;28;20043;-52
2021/06/15 01:29:32;;;;;;;0.00;0.00;;;23.90;59.30;;;;;;4212621;27;20100;-49
2021/06/15 01:32:00;;;;;;;0.00;0.00;;;23.90;59.40;;;;;;4223280;28;20055;-48
2021/06/15 01:34:26;;;;;;;0.00;0.00;;;23.90;60.20;;;;;;4223415;27;20055;-52
2021/06/15 01:36:57;;;;;;;1.20;1.08;;;23.90;59.40;;;;;;4223091;28;20054;-53
2021/06/15 01:39:26;;;;;;;0.00;0.00;;;23.90;59.40;;;;;;4225121;28;20732;-49
2021/06/15 01:41:57;;;;;;;0.00;0.00;;;23.90;59.40;;;;;;4225117;27;20132;-49
2021/06/15 01:44:24;;;;;;;0.00;0.00;;;23.90;59.40;;;;;;4225012;28;20058;-53
2021/06/15 01:46:57;;;;;;;0.00;0.00;;;23.90;59.40;;;;;;4224992;27;20048;-53
2021/06/15 01:49:24;;;;;;;0.00;0.00;;;23.90;59.40;;;;;;4224892;28;20508;-53
2021/06/15 01:51:49;;;;;;;0.00;0.00;;;23.90;59.40;;;;;;4223266;27;20412;-52
2021/06/15 01:54:13;;;;;;;0.00;0.00;;;23.80;59.40;;;;;;4224838;28;20493;-52
2021/06/15 01:56:44;;;;;;;0.00;0.00;;;23.90;59.50;;;;;;4224570;27;20056;-50
2021/06/15 01:59:10;;;;;;;0.00;0.00;;;23.80;59.40;;;;;;4224664;28;20044;-53
2021/06/15 02:01:39;;;;;;;0.00;0.00;;;23.80;59.40;;;;;;4208878;28;20123;-50
2021/06/15 02:04:04;;;;;;;0.00;0.00;;;23.80;60.20;;;;;;4224225;28;20078;-54
2021/06/15 02:06:29;;;;;;;0.00;0.00;;;23.80;59.40;;;;;;4224420;28;20409;-50
2021/06/15 02:08:54;;;;;;;0.00;0.00;;;23.80;59.40;;;;;;4223461;28;20490;-50
2021/06/15 02:11:36;;;;;;;0.00;0.00;;;23.80;59.50;;;;;;4223681;28;20058;-49
2021/06/15 02:14:38;;;;;;;0.00;0.00;;;23.80;59.50;;;;;;4171860;28;20143;-55
2021/06/15 02:17:07;;;;;;;0.00;0.00;;;23.80;59.50;;;;;;4171315;28;20414;-54
2021/06/15 02:19:58;;;;;;;0.00;0.00;;;23.80;59.70;;;;;;4200687;28;20126;-55
2021/06/15 02:22:23;;;;;;;0.00;0.00;;;23.80;59.80;;;;;;4207474;28;20105;-52
2021/06/15 02:24:48;;;;;;;0.00;0.00;;;23.80;59.90;;;;;;4176775;28;20388;-50
2021/06/15 02:27:14;;;;;;;1.85;1.08;;;23.80;59.90;;;;;;4220358;28;20563;-51
2021/06/15 02:29:40;;;;;;;0.00;0.00;;;23.80;60.00;;;;;;4224652;28;20397;-51
2021/06/15 02:32:05;;;;;;;0.00;0.00;;;23.80;60.00;;;;;;4222891;28;20463;-52
2021/06/15 02:34:29;;;;;;;0.00;0.00;;;23.80;60.00;;;;;;4224393;28;20052;-54
2021/06/15 02:36:59;;;;;;;0.00;0.00;;;23.70;60.00;;;;;;4223896;28;20477;-52
2021/06/15 02:39:27;;;;;;;0.00;0.00;;;23.70;60.00;;;;;;4208659;28;20055;-49
2021/06/15 02:41:49;;;;;;;0.00;0.00;;;23.70;60.00;;;;;;4224039;28;20108;-51
2021/06/15 02:44:18;;;;;;;0.00;0.00;;;23.70;60.00;;;;;;4221845;28;20048;-50
2021/06/15 02:46:43;;;;;;;;;;;23.70;60.00;;;;;;4223930;28;20074;-51
2021/06/15 02:49:09;;;;;;;0.13;0.08;;;23.70;60.00;;;;;;4228114;27;19926;-50
2021/06/15 02:51:36;;;;;;;0.00;0.00;;;23.70;60.00;;;;;;4227766;28;20047;-50
2021/06/15 02:54:06;;;;;;;0.00;0.00;;;23.70;60.00;;;;;;4226497;28;20463;-49
2021/06/15 02:56:33;;;;;;;0.00;0.00;;;23.70;60.00;;;;;;4225665;27;20051;-55
2021/06/15 02:58:54;;;;;;;0.00;0.00;;;23.70;60.00;;;;;;4227380;27;20047;-52
2021/06/15 03:01:16;;;;;;;0.40;0.40;;;23.70;60.00;;;;;;4227703;27;20050;-54
2021/06/15 03:03:45;;;;;;;0.00;0.00;;;23.70;60.00;;;;;;4227805;27;20698;-53
2021/06/15 03:06:08;;;;;;;0.00;0.00;;;23.60;60.00;;;;;;4227538;27;20394;-51
2021/06/15 03:08:32;;;;;;;0.00;0.00;;;23.60;60.00;;;;;;4225989;28;20048;-54
2021/06/15 03:10:55;;;;;;;0.00;0.00;;;23.60;60.00;;;;;;4226168;28;20051;-53
2021/06/15 03:13:22;;;;;;;0.00;0.00;;;23.60;60.00;;;;;;4227673;27;20043;-54
2021/06/15 03:15:47;;;;;;;0.00;0.00;;;23.60;60.90;;;;;;4227065;28;20043;-53
2021/06/15 03:18:21;;;;;;;0.00;0.00;;;23.60;60.10;;;;;;4227358;28;20050;-53
2021/06/15 03:20:46;;;;;;;0.25;0.25;;;23.60;60.00;;;;;;4226883;27;20047;-50
2021/06/15 03:23:14;;;;;;;0.00;0.00;;;23.60;60.00;;;;;;4227414;27;20698;-50
2021/06/15 03:25:38;;;;;;;0.00;0.00;;;23.60;60.10;;;;;;4226286;27;20382;-53
2021/06/15 03:28:09;;;;;;;0.00;0.00;;;23.60;60.10;;;;;;4227119;27;20048;-49
2021/06/15 03:30:32;;;;;;;0.00;0.00;;;23.60;60.10;;;;;;4227028;27;20400;-49
2021/06/15 03:32:57;;;;;;;0.55;0.43;;;23.50;60.00;;;;;;4211133;28;20097;-51
2021/06/15 03:35:22;;;;;;;0.00;0.00;;;23.50;60.00;;;;;;4226224;28;20047;-49
2021/06/15 03:37:51;;;;;;;0.00;0.00;;;23.50;60.00;;;;;;4226859;28;20139;-53
2021/06/15 03:40:16;;;;;;;0.00;0.00;;;23.50;60.00;;;;;;4226441;28;20058;-54
2021/06/15 03:42:40;;;;;;;0.00;0.00;;;23.50;60.90;;;;;;4226733;28;20079;-54
2021/06/15 03:45:06;;;;;;;0.00;0.00;;;23.50;60.00;;;;;;4225617;28;20130;-53
2021/06/15 03:47:30;;;;;;;0.30;0.30;;;23.50;60.00;;;;;;4226344;28;20138;-52
2021/06/15 03:49:55;;;;;;;0.00;0.00;;;23.50;60.00;;;;;;4223576;28;20047;-52
2021/06/15 03:52:17;;;;;;;0.00;0.00;;;23.50;60.10;;;;;;4226490;28;20047;-54
2021/06/15 03:54:42;;;;;;;0.00;0.00;;;23.50;60.00;;;;;;4210497;28;20510;-55
2021/06/15 03:57:06;;;;;;;1.77;0.75;;;23.50;60.00;;;;;;4225642;28;20047;-54
2021/06/15 03:59:30;;;;;;;0.00;0.00;;;23.50;60.10;;;;;;4225959;28;20104;-54
2021/06/15 04:01:56;;;;;;;0.00;0.00;;;23.50;60.10;;;;;;4226043;27;20056;-52
2021/06/15 04:04:20;;;;;;;0.00;0.00;;;23.50;60.10;;;;;;4226563;27;20150;-53
2021/06/15 04:06:46;;;;;;;0.00;0.00;;;23.50;60.00;;;;;;4226804;27;20349;-53
2021/06/15 04:09:09;;;;;;;0.00;0.00;;;23.50;60.10;;;;;;4226427;28;20123;-53
2021/06/15 04:11:34;;;;;;;0.60;0.60;;;23.50;60.00;;;;;;4226640;27;20480;-55
2021/06/15 04:13:58;;;;;;;0.00;0.00;;;23.40;60.00;;;;;;4226626;28;20043;-55
2021/06/15 04:16:20;;;;;;;0.00;0.00;;;23.40;60.00;;;;;;4226279;27;20056;-52
2021/06/15 04:18:46;;;;;;;0.00;0.00;;;23.40;60.80;;;;;;4209826;28;20516;-56
2021/06/15 04:21:10;;;;;;;0.03;0.03;;;23.40;59.90;;;;;;4222038;27;20817;-51
2021/06/15 04:23:42;;;;;;;0.00;0.00;;;23.40;59.90;;;;;;4226636;28;20485;-53
2021/06/15 04:26:04;;;;;;;0.32;0.32;;;23.40;59.90;;;;;;4225632;27;20048;-55
2021/06/15 04:28:27;;;;;;;0.00;0.00;;;23.40;59.90;;;;;;4226414;27;20493;-55
2021/06/15 04:30:49;;;;;;;0.00;0.00;;;23.30;59.80;;;;;;4226396;27;20503;-52
2021/06/15 04:33:14;;;;;;;0.00;0.00;;;23.30;59.80;;;;;;4226278;28;20073;-54
2021/06/15 04:35:40;;;;;;;0.00;0.00;;;23.30;59.80;;;;;;4225681;27;20100;-54
2021/06/15 04:38:08;;;;;;;0.00;0.00;;;23.30;59.80;;;;;;4226357;27;20051;-56
2021/06/15 04:40:35;;;;;;;0.00;0.00;;;23.30;59.80;;;;;;4225990;27;20036;-53
2021/06/15 04:43:21;;;;;;;0.00;0.00;;;23.30;59.80;;;;;;4226295;27;20482;-51
2021/06/15 04:45:46;;;;;;;0.00;0.00;;;23.30;59.80;;;;;;4225564;27;20055;-49
2021/06/15 04:48:11;;;;;;;0.00;0.00;;;23.30;59.90;;;;;;4226121;28;20058;-52
2021/06/15 04:50:35;;;;;;;0.05;0.05;;;23.30;59.80;;;;;;4226012;27;20466;-54
2021/06/15 04:53:03;;;;;;;0.00;0.00;;;23.30;59.90;;;;;;4225369;27;20116;-53
2021/06/15 04:55:29;;;;;;;0.00;0.00;;;23.30;59.80;;;;;;4225637;27;20047;-54
2021/06/15 04:57:53;;;;;;;0.00;0.00;;;23.30;59.80;;;;;;4207165;28;20047;-55
2021/06/15 05:00:16;;;;;;;0.00;0.00;;;23.30;60.30;;;;;;4215617;28;20460;-52
2021/06/15 05:02:41;;;;;;;0.00;0.00;;;23.30;60.30;;;;;;4225829;27;20476;-52
2021/06/15 05:05:05;;;;;;;0.00;0.00;;;23.30;60.20;;;;;;4225167;28;20459;-52
2021/06/15 05:07:28;;;;;;;0.00;0.00;;;23.30;60.20;;;;;;4208785;28;20052;-52
2021/06/15 05:09:54;;;;;;;0.00;0.00;;;23.30;60.20;;;;;;4213107;28;20572;-50
2021/06/15 05:12:19;;;;;;;0.30;0.30;;;23.30;60.10;;;;;;4225606;27;20108;-53
2021/06/15 05:14:44;;;;;;;0.10;0.10;;;23.30;60.20;;;;;;4225371;27;20563;-50
2021/06/15 05:17:09;;;;;;;0.00;0.00;;;23.30;60.30;;;;;;4224988;28;20051;-55
2021/06/15 05:19:31;;;;;;;0.00;0.00;;;23.30;60.50;;;;;;4224698;27;20508;-52
2021/06/15 05:22:00;;;;;;;0.10;0.10;;;23.30;60.60;;;;;;4225260;27;20054;-51
2021/06/15 05:24:31;;;;;;;0.10;0.10;;;23.30;60.80;;;;;;4224939;27;20048;-53
2021/06/15 05:26:55;;;;;;;0.00;0.00;;;23.30;60.90;;;;;;4224986;27;20060;-53
2021/06/15 05:29:17;;;;;;;0.00;0.00;;;23.30;61.10;;;;;;4225306;27;20047;-53
2021/06/15 05:31:40;;;;;;;0.00;0.00;;;23.30;61.10;;;;;;4225330;28;20443;-52
2021/06/15 05:34:02;;;;;;;0.00;0.00;;;23.40;61.10;;;;;;4225069;28;20104;-52
2021/06/15 05:36:24;;;;;;;0.00;0.00;;;23.40;61.00;;;;;;4225227;27;20534;-53
2021/06/15 05:38:46;;;;;;;0.00;0.00;;;23.40;60.90;;;;;;4224895;28;20055;-53
2021/06/15 05:41:08;;;;;;;0.00;0.00;;;23.40;60.60;;;;;;4224953;27;20051;-52
2021/06/15 05:43:32;;;;;;;0.00;0.00;;;23.40;60.10;;;;;;4225438;27;20051;-53
2021/06/15 05:45:54;;;;;;;0.00;0.00;;;23.40;59.30;;;;;;4224466;27;20051;-54
2021/06/15 05:48:16;;;;;;;7.43;0.55;;;23.40;59.40;;;;;;4224926;27;20196;-50
2021/06/15 05:50:38;;;;;;;0.20;0.20;;;23.40;59.30;;;;;;4224566;27;20390;-55
2021/06/15 05:53:01;;;;;;;0.00;0.00;;;23.30;59.20;;;;;;4220545;28;20047;-52
2021/06/15 05:55:24;;;;;;;0.00;0.00;;;23.40;59.20;;;;;;4223684;28;20165;-52
2021/06/15 05:57:46;;;;;;;0.00;0.00;;;23.30;59.00;;;;;;4224947;28;20071;-51
2021/06/15 06:00:11;;;;;;;0.00;0.00;;;23.30;59.00;;;;;;4224567;28;20047;-51
2021/06/15 06:02:36;;;;;;;0.00;0.00;;;23.30;59.00;;;;;;4225229;28;20527;-51
2021/06/15 06:10:17;;;;;;;0.00;0.00;;;23.20;58.30;;;;;;4217269;27;20040;-51
2021/06/15 06:12:39;;;;;;;0.13;0.13;;;23.20;58.40;;;;;;4224416;28;20056;-48
2021/06/15 06:15:02;;;;;;;0.00;0.00;;;23.20;58.30;;;;;;4224572;28;20047;-50
2021/06/15 06:17:26;;;;;;;0.00;0.00;;;23.30;57.80;;;;;;4221694;28;20047;-53
2021/06/15 06:20:01;;;;;;;0.00;0.00;;;23.30;57.20;;;;;;4207275;28;20047;-52
2021/06/15 06:22:23;;;;;;;0.00;0.00;;;23.30;56.80;;;;;;4221375;28;20051;-52
2021/06/15 06:24:45;;;;;;;0.00;0.00;;;23.30;56.80;;;;;;4224438;27;20039;-49
2021/06/15 06:27:08;;;;;;;0.00;0.00;;;23.30;56.90;;;;;;4208913;28;20048;-49
2021/06/15 06:29:29;;;;;;;0.20;0.20;;;23.40;56.80;;;;;;4207603;28;20406;-49
2021/06/15 06:31:52;;;;;;;0.00;0.00;;;23.40;56.60;;;;;;4212282;28;20047;-49
2021/06/15 06:34:16;;;;;;;0.38;0.38;;;23.40;56.70;;;;;;4223717;28;20130;-51
2021/06/15 06:36:38;;;;;;;0.10;0.10;;;23.30;56.80;;;;;;4224465;28;20048;-54
2021/06/15 06:39:00;;;;;;;0.00;0.00;;;23.30;56.60;;;;;;4224375;28;20051;-52
2021/06/15 06:41:23;;;;;;;0.00;0.00;;;23.30;56.20;;;;;;4207433;28;20083;-53
2021/06/15 06:43:45;;;;;;;0.00;0.00;;;23.30;56.30;;;;;;4209359;28;20420;-50
2021/06/15 06:46:07;;;;;;;0.93;0.93;;;23.50;56.00;;;;;;4224102;28;20062;-51
2021/06/15 06:48:30;;;;;;;0.00;0.00;;;23.60;55.80;;;;;;4224267;28;20142;-51
2021/06/15 06:50:53;;;;;;;0.80;0.73;;;23.60;55.50;;;;;;4224504;28;20122;-51
2021/06/15 06:53:15;;;;;;;0.00;0.00;;;23.70;55.40;;;;;;4224389;28;20043;-55
2021/06/15 06:55:37;;;;;;;1.55;1.30;;;23.80;55.00;;;;;;4222962;28;20075;-54
2021/06/15 06:58:00;;;;;;;0.65;0.63;;;23.90;54.60;;;;;;4224268;28;20130;-52
2021/06/15 07:00:23;;;;;;;0.32;0.32;;;24.00;54.40;;;;;;4224415;28;20127;-51
2021/06/15 07:02:47;;;;;;;0.10;0.10;;;24.10;54.30;;;;;;4224252;28;20043;-53
2021/06/15 07:05:11;;;;;;;0.00;0.00;;;24.10;54.20;;;;;;4223909;28;20387;-52
2021/06/15 07:07:35;;;;;;;0.03;0.03;;;24.00;54.10;;;;;;4224218;28;20146;-50
2021/06/15 07:09:57;;;;;;;0.00;0.00;;;23.90;54.00;;;;;;4224204;28;20067;-53
2021/06/15 07:12:19;;;;;;;0.00;0.00;;;23.90;54.10;;;;;;4224318;28;20060;-53
2021/06/15 07:14:42;;;;;;;0.10;0.10;;;23.90;54.10;;;;;;4223593;28;20408;-51
2021/06/15 07:17:04;;;;;;;0.43;0.43;;;23.90;54.20;;;;;;4224180;28;20052;-49
2021/06/15 07:19:27;;;;;;;0.68;0.65;;;23.90;54.00;;;;;;4223842;28;20048;-55
2021/06/15 07:21:49;;;;;;;0.00;0.00;;;24.00;54.00;;;;;;4223511;28;20420;-54
2021/06/15 07:24:16;;;;;;;0.00;0.00;;;24.00;53.90;;;;;;4223196;28;20479;-51
2021/06/15 07:26:38;;;;;;;0.15;0.15;;;24.10;53.70;;;;;;4223228;28;20134;-52
2021/06/15 07:29:01;;;;;;;0.47;0.47;;;24.10;53.40;;;;;;4223900;28;20488;-51
2021/06/15 07:31:24;;;;;;;0.00;0.00;;;24.10;53.50;;;;;;4224405;28;20478;-50
2021/06/15 07:33:46;;;;;;;0.20;0.20;;;24.20;53.30;;;;;;4223893;27;20501;-53
2021/06/15 07:36:08;;;;;;;0.00;0.00;;;24.20;53.00;;;;;;4226942;27;20051;-51
2021/06/15 07:38:30;;;;;;;0.20;0.20;;;24.20;52.90;;;;;;4227048;27;20128;-50
2021/06/15 07:40:54;;;;;;;0.00;0.00;;;24.20;53.10;;;;;;4226947;27;20052;-50
2021/06/15 07:43:17;;;;;;;2.33;0.20;;;24.30;52.80;;;;;;4226630;28;20065;-52
2021/06/15 07:45:39;;;;;;;0.00;0.00;;;24.20;52.70;;;;;;4226913;27;20482;-50
2021/06/15 07:48:01;;;;;;;0.00;0.00;;;24.20;52.50;;;;;;4226903;27;20455;-54
2021/06/15 07:50:24;;;;;;;1.75;1.65;;;24.20;52.60;;;;;;4227051;27;20044;-48
2021/06/15 07:52:47;;;;;;;0.00;0.00;;;24.20;52.70;;;;;;4210911;28;20058;-50
2021/06/15 07:55:11;;;;;;;0.00;0.00;;;24.10;52.70;;;;;;4209342;28;20048;-54
2021/06/15 07:57:35;;;;;;;0.00;0.00;;;24.10;52.80;;;;;;4225919;28;20052;-50
2021/06/15 07:59:58;;;;;;;0.00;0.00;;;24.10;52.90;;;;;;4226699;27;20067;-51
2021/06/15 08:02:19;;;;;;;0.00;0.00;;;24.10;53.00;;;;;;4226595;27;20066;-53
2021/06/15 08:04:42;;;;;;;0.43;0.43;;;24.10;52.90;;;;;;4226312;27;20071;-52
2021/06/15 08:07:05;;;;;;;0.30;0.30;;;24.20;52.60;;;;;;4226508;27;20524;-52
2021/06/15 08:09:27;;;;;;;0.57;0.57;;;24.20;52.20;;;;;;4224558;28;20135;-53
2021/06/15 08:11:49;;;;;;;0.00;0.00;;;24.10;52.30;;;;;;4181605;28;20139;-51
2021/06/15 08:14:13;;;;;;;1.27;1.10;;;24.20;52.10;;;;;;4224459;27;20043;-54
2021/06/15 08:16:35;;;;;;;0.00;0.00;;;24.20;52.10;;;;;;4225863;27;20549;-53
2021/06/15 08:18:57;;;;;;;1.00;1.00;;;24.20;52.30;;;;;;4226229;27;20048;-54
2021/06/15 08:21:19;;;;;;;0.13;0.13;;;24.20;52.20;;;;;;4225854;27;20490;-51
2021/06/15 08:23:41;;;;;;;0.00;0.00;;;24.20;52.00;;;;;;4225381;28;20078;-54
2021/06/15 08:26:07;;;;;;;0.63;0.63;;;24.20;51.90;;;;;;4225031;28;20101;-53
2021/06/15 08:28:29;;;;;;;0.00;0.00;;;24.20;51.70;;;;;;4226002;28;20108;-53
2021/06/15 08:30:53;;;;;;;1.65;1.17;;;24.10;52.40;;;;;;4225320;28;20056;-51
2021/06/15 08:33:15;;;;;;;0.00;0.00;;;24.10;51.70;;;;;;4225790;27;20055;-51
2021/06/15 08:35:38;;;;;;;0.00;0.00;;;24.10;51.80;;;;;;4225979;28;20417;-50
2021/06/15 08:38:00;;;;;;;0.00;0.00;;;24.10;52.10;;;;;;4209237;28;20134;-53
2021/06/15 08:40:22;;;;;;;0.10;0.10;;;24.10;52.20;;;;;;4223312;28;20047;-51
2021/06/15 08:42:45;;;;;;;0.00;0.00;;;24.10;52.20;;;;;;4226294;27;20382;-54
2021/06/15 08:45:09;;;;;;;0.00;0.00;;;24.00;52.20;;;;;;4224560;27;20048;-53
2021/06/15 08:47:32;;;;;;;1.50;1.40;;;24.00;52.40;;;;;;4214886;28;20055;-50
2021/06/15 08:49:55;;;;;;;0.22;0.22;;;24.00;52.50;;;;;;4225892;27;20100;-54
2021/06/15 08:52:17;;;;;;;0.13;0.13;;;24.00;52.40;;;;;;4224693;28;20040;-55
2021/06/15 08:54:40;;;;;;;0.00;0.00;;;24.00;52.30;;;;;;4224481;28;20092;-55
2021/06/15 08:57:03;;;;;;;0.00;0.00;;;24.00;52.10;;;;;;4225993;27;20047;-53
2021/06/15 08:59:28;;;;;;;0.00;0.00;;;24.00;52.20;;;;;;4225719;27;20139;-52
2021/06/15 09:01:53;;;;;;;0.00;0.00;;;24.00;52.10;;;;;;4225780;27;20044;-52
2021/06/15 09:04:17;;;;;;;0.50;0.50;;;24.00;52.10;;;;;;4225281;27;20055;-50
2021/06/15 09:06:39;;;;;;;0.00;0.00;;;24.00;51.90;;;;;;4225842;28;20071;-53
2021/06/15 09:09:03;;;;;;;0.00;0.00;;;23.90;51.90;;;;;;4225631;27;20059;-52
2021/06/15 09:11:27;;;;;;;0.00;0.00;;;24.00;52.10;;;;;;4225463;27;20048;-54
2021/06/15 09:13:49;;;;;;;0.47;0.28;;;24.00;52.10;;;;;;4225288;28;20414;-53
2021/06/15 09:16:26;;;;;;;0.88;0.35;;;24.00;52.30;;;;;;4225250;27;20485;-53
2021/06/15 09:18:49;;;;;;;0.00;0.00;;;24.00;52.30;;;;;;4225234;28;20050;-53
2021/06/15 09:21:16;;;;;;;0.00;0.00;;;23.90;52.40;;;;;;4225778;27;20048;-50
2021/06/15 09:23:40;;;;;;;0.20;0.20;;;23.90;52.40;;;;;;4225333;27;20481;-51
2021/06/15 09:26:03;;;;;;;0.00;0.00;;;24.00;52.30;;;;;;4225350;27;20051;-54
2021/06/15 09:28:25;;;;;;;0.03;0.03;;;24.00;52.30;;;;;;4225035;27;20061;-52
2021/06/15 09:30:56;;;;;;;0.00;0.00;;;24.00;52.30;;;;;;4225677;27;20047;-52
2021/06/15 09:33:19;;;;;;;3.33;1.25;;;24.10;52.30;;;;;;4223731;27;20044;-53
2021/06/15 09:35:41;;;;;;;0.00;0.00;;;24.10;52.40;;;;;;4225369;27;20052;-52
2021/06/15 09:38:04;;;;;;;1.88;0.75;;;24.20;52.30;;;;;;4225020;28;20047;-52
2021/06/15 09:40:29;;;;;;;0.00;0.00;;;24.20;52.20;;;;;;4224839;28;20048;-56
2021/06/15 09:43:01;;;;;;;0.10;0.10;;;24.30;52.20;;;;;;4225144;27;20048;-52
2021/06/15 09:45:25;;;;;;;7.72;2.08;;;24.30;53.40;;;;;;4224146;27;20062;-55
2021/06/15 09:47:47;;;;;;;0.70;0.70;;;24.30;53.30;;;;;;4221685;28;20130;-49
2021/06/15 09:50:10;;;;;;;0.43;0.43;;;24.40;53.20;;;;;;4225125;28;20044;-52
2021/06/15 09:52:33;;;;;;;0.28;0.28;;;24.40;53.00;;;;;;4224951;27;20054;-49
2021/06/15 09:54:58;;;;;;;14.73;1.63;;;24.40;52.60;;;;;;4223435;28;20126;-50
2021/06/15 09:57:26;;;;;;;0.00;0.00;;;24.30;52.40;;;;;;4224619;27;20075;-53
2021/06/15 10:00:08;;;;;;;0.00;0.00;;;24.30;52.30;;;;;;4224424;27;20371;-56
2021/06/15 10:02:31;;;;;;;0.00;0.00;;;24.20;52.30;;;;;;4225018;28;20051;-57
2021/06/15 10:04:53;;;;;;;12.80;2.10;;;24.30;52.30;;;;;;4224157;28;20051;-53
2021/06/15 10:07:25;;;;;;;0.00;0.00;;;24.30;52.10;;;;;;4225120;28;20518;-52
2021/06/15 10:09:47;;;;;;;0.77;0.75;;;24.30;51.80;;;;;;4224566;28;20393;-54
2021/06/15 10:12:11;;;;;;;1.10;1.10;;;24.30;51.90;;;;;;4207560;28;20047;-54
2021/06/15 10:14:35;;;;;;;0.13;0.13;;;24.30;51.70;;;;;;4207900;28;20051;-53
2021/06/15 10:16:59;;;;;;;0.43;0.43;;;24.30;51.90;;;;;;4211110;28;20401;-51
2021/06/15 10:19:22;;;;;;;4.50;2.33;;;24.30;51.80;;;;;;4224678;28;20518;-51
2021/06/15 10:21:44;;;;;;;1.63;1.60;;;24.30;51.90;;;;;;4224754;28;20733;-54
2021/06/15 10:24:10;;;;;;;1.98;1.88;;;24.30;52.00;;;;;;4208064;28;20557;-53
2021/06/15 10:26:43;;;;;;;1.20;1.10;;;24.30;52.00;;;;;;4207857;28;20055;-51
2021/06/15 10:29:13;;;;;;;0.95;0.40;;;24.40;51.70;;;;;;4208039;28;20044;-55
2021/06/15 10:31:37;;;;;;;1.45;1.35;;;24.40;51.80;;;;;;4209069;28;20489;-51
2021/06/15 10:34:00;;;;;;;6.13;1.55;;;24.50;51.70;;;;;;4224629;28;20043;-53
2021/06/15 10:36:38;;;;;;;4.85;2.00;;;24.50;51.90;;;;;;4224579;28;20040;-53
2021/06/15 10:39:00;;;;;;;0.00;0.00;;;24.50;51.80;;;;;;4224064;28;20116;-54
2021/06/15 10:41:23;;;;;;;1.10;1.00;;;24.50;51.80;;;;;;4224455;28;20425;-54
2021/06/15 10:43:46;;;;;;;0.08;0.08;;;24.60;51.80;;;;;;4224321;28;20079;-52
2021/06/15 10:46:35;;;;;;;0.38;0.38;;;24.60;51.80;;;;;;4224880;28;20061;-50
2021/06/15 10:49:00;;;;;;;0.00;0.00;;;24.60;51.80;;;;;;4215684;28;20095;-53
2021/06/15 10:51:28;;;;;;;0.05;0.05;;;24.60;51.80;;;;;;4223768;28;20036;-54
2021/06/15 10:53:52;;;;;;;0.82;0.82;;;24.70;51.80;;;;;;4210145;28;20048;-54
2021/06/15 10:56:16;;;;;;;0.70;0.70;;;24.70;51.90;;;;;;4223808;28;20101;-52
2021/06/15 10:59:10;;;;;;;1.98;1.88;;;24.70;51.80;;;;;;4224080;28;20052;-55
2021/06/15 11:01:35;;;;;;;1.27;1.00;;;24.70;51.90;;;;;;4223897;28;20043;-51
2021/06/15 11:03:59;;;;;;;0.95;0.73;;;24.70;51.80;;;;;;4222607;28;20044;-53
2021/06/15 11:06:37;;;;;;;0.10;0.10;;;24.70;51.70;;;;;;4208013;28;20052;-55
2021/06/15 11:09:18;;;;;;;7.55;2.45;;;24.70;51.60;;;;;;4211296;28;20052;-53
2021/06/15 11:11:41;;;;;;;2.05;0.75;;;24.70;51.50;;;;;;4219852;28;20061;-55
2021/06/15 11:14:07;;;;;;;0.43;0.43;;;24.70;52.20;;;;;;4227310;28;20051;-54
2021/06/15 11:16:35;;;;;;;0.10;0.10;;;24.70;51.40;;;;;;4227767;27;20051;-54
2021/06/15 11:19:39;;;;;;;0.40;0.40;;;24.70;51.40;;;;;;4226691;27;20044;-53
2021/06/15 11:22:04;;;;;;;0.28;0.28;;;24.70;51.40;;;;;;4225692;28;20045;-53
2021/06/15 11:24:28;;;;;;;0.00;0.00;;;24.70;51.40;;;;;;4227176;27;20225;-54
2021/06/15 11:26:52;;;;;;;0.52;0.43;;;24.70;51.20;;;;;;4227335;27;20104;-53
2021/06/15 11:29:29;;;;;;;0.00;0.00;;;24.70;51.20;;;;;;4227215;28;20560;-52
2021/06/15 11:31:52;;;;;;;0.30;0.30;;;24.70;51.20;;;;;;4226670;28;20051;-51
2021/06/15 11:34:16;;;;;;;1.75;0.73;;;24.70;51.20;;;;;;4227315;27;20050;-51
2021/06/15 11:36:46;;;;;;;2.45;0.65;;;24.70;51.30;;;;;;4226934;28;20063;-52
2021/06/15 11:39:37;;;;;;;0.55;0.35;;;24.70;51.30;;;;;;4227303;28;20130;-54
2021/06/15 11:42:19;;;;;;;1.43;0.87;;;24.70;51.40;;;;;;4227012;27;20047;-49
2021/06/15 11:44:51;;;;;;;0.00;0.00;;;24.70;51.70;;;;;;4209401;28;20506;-50
2021/06/15 11:47:28;;;;;;;0.00;0.00;;;24.80;51.60;;;;;;4210008;28;20047;-51
2021/06/15 11:50:04;;;;;;;0.00;0.00;;;24.80;51.30;;;;;;4209889;28;20484;-50
2021/06/15 11:52:26;;;;;;;0.00;0.00;;;24.80;51.30;;;;;;4225153;28;20043;-53
2021/06/15 11:54:48;;;;;;;0.13;0.13;;;24.80;51.20;;;;;;4227048;27;20576;-55
2021/06/15 11:57:10;;;;;;;0.20;0.20;;;24.80;51.60;;;;;;4226508;27;20054;-56
2021/06/15 11:59:32;;;;;;;0.00;0.00;;;24.90;52.00;;;;;;4226818;27;20051;-51
2021/06/15 12:01:55;;;;;;;0.60;0.60;;;24.80;51.80;;;;;;4226437;27;20051;-51
2021/06/15 12:04:19;;;;;;;0.00;0.00;;;24.80;52.10;;;;;;4226858;28;20090;-50
2021/06/15 12:06:41;;;;;;;0.10;0.10;;;24.80;51.00;;;;;;4226560;27;20493;-50
2021/06/15 12:09:05;;;;;;;0.00;0.00;;;24.80;50.90;;;;;;4208948;28;20048;-49
2021/06/15 12:11:27;;;;;;;0.00;0.00;;;24.70;51.10;;;;;;4209930;28;20048;-48
2021/06/15 12:13:50;;;;;;;0.00;0.00;;;24.70;51.10;;;;;;4209773;28;20044;-50
2021/06/15 12:16:16;;;;;;;0.00;0.00;;;24.70;51.00;;;;;;4208608;28;20476;-49
2021/06/15 12:18:41;;;;;;;0.00;0.00;;;24.70;51.00;;;;;;4215547;28;20051;-50
2021/06/15 12:21:08;;;;;;;0.00;0.00;;;24.70;50.70;;;;;;4225420;27;20043;-46
2021/06/15 12:23:34;;;;;;;3.92;1.45;;;24.70;50.60;;;;;;4218311;27;20104;-54
2021/06/15 12:26:06;;;;;;;0.00;0.00;;;24.70;50.40;;;;;;4192482;28;20105;-52
2021/06/15 12:28:28;;;;;;;0.00;0.00;;;24.70;50.50;;;;;;4208890;28;20040;-51
2021/06/15 12:31:12;;;;;;;0.65;0.38;;;24.70;50.30;;;;;;4215776;27;20505;-49
2021/06/15 12:33:34;;;;;;;0.00;0.00;;;24.70;50.30;;;;;;4225848;27;20063;-50
2021/06/15 12:36:00;;;;;;;0.45;0.45;;;24.70;50.30;;;;;;4226433;27;20065;-46
2021/06/15 12:38:24;;;;;;;0.00;0.00;;;24.70;50.10;;;;;;4209549;28;20462;-47
2021/06/15 12:40:47;;;;;;;0.00;0.00;;;24.70;50.10;;;;;;4209191;28;20048;-47
2021/06/15 12:43:11;;;;;;;0.10;0.10;;;24.80;50.10;;;;;;4209551;28;20827;-49
2021/06/15 12:45:34;;;;;;;0.00;0.00;;;24.70;50.80;;;;;;4222175;27;20082;-46